createdAt,value
2023-03-01T00:04:39.645Z,8.80
2023-03-01T00:14:42.487Z,9.70
2023-03-01T00:24:46.829Z,10.70
2023-03-01T00:34:56.149Z,10.30
2023-03-01T00:45:00.714Z,10.33
2023-03-01T00:55:04.051Z,10.37
2023-03-01T01:05:10.203Z,9.70
2023-03-01T01:15:14.898Z,10.17
2023-03-01T01:25:19.277Z,10.77
2023-03-01T01:35:23.097Z,10.40
2023-03-01T01:45:32.126Z,10.03
2023-03-01T01:55:35.476Z,9.23
2023-03-01T02:05:54.751Z,9.70
2023-03-01T02:15:58.640Z,10.00
2023-03-01T02:26:09.036Z,9.20
2023-03-01T02:36:19.654Z,11.17
2023-03-01T02:46:25.177Z,9.63
2023-03-01T02:56:30.567Z,9.00
2023-03-01T03:06:34.222Z,10.30
2023-03-01T03:16:38.569Z,9.80
2023-03-01T03:26:41.925Z,9.20
2023-03-01T03:36:46.349Z,10.60
2023-03-01T03:46:49.599Z,9.90
2023-03-01T03:56:54.006Z,8.23
2023-03-01T04:06:57.060Z,8.43
2023-03-01T04:17:02.140Z,8.93
2023-03-01T04:27:05.097Z,8.77
2023-03-01T04:37:10.108Z,9.50
2023-03-01T04:47:13.955Z,8.47
2023-03-01T04:57:18.409Z,8.93
2023-03-01T05:07:21.284Z,10.40
2023-03-01T05:17:25.876Z,9.50
2023-03-01T05:27:28.882Z,10.23
2023-03-01T05:37:33.242Z,10.17
2023-03-01T05:47:36.675Z,9.83
2023-03-01T05:57:41.263Z,7.90
2023-03-01T06:07:45.217Z,10.73
2023-03-01T06:17:49.956Z,10.73
2023-03-01T06:27:54.292Z,10.77
2023-03-01T06:37:59.575Z,12.53
2023-03-01T06:48:07.166Z,12.97
2023-03-01T06:58:13.516Z,11.37
2023-03-01T07:08:16.550Z,12.63
2023-03-01T07:18:21.945Z,11.50
2023-03-01T07:28:25.472Z,11.57
2023-03-01T07:38:30.166Z,11.60
2023-03-01T07:48:34.397Z,11.90
2023-03-01T07:58:39.898Z,11.43
2023-03-01T08:08:43.608Z,12.17
2023-03-01T08:18:48.149Z,13.67
2023-03-01T08:28:52.168Z,14.60
2023-03-01T08:38:56.588Z,13.53
2023-03-01T08:49:00.606Z,22.47
2023-03-01T08:59:05.280Z,19.17
2023-03-01T09:09:10.301Z,13.90
2023-03-01T09:19:15.150Z,12.83
2023-03-01T09:29:20.970Z,13.53
2023-03-01T09:39:25.479Z,12.10
2023-03-01T09:49:32.369Z,12.80
2023-03-01T09:59:54.911Z,15.07
2023-03-01T10:09:58.237Z,12.67
2023-03-01T10:20:15.998Z,12.77
2023-03-01T10:30:23.195Z,11.93
2023-03-01T10:40:27.845Z,10.47
2023-03-01T10:50:31.460Z,11.70
2023-03-01T11:00:48.789Z,10.43
2023-03-01T11:10:51.920Z,10.73
2023-03-01T11:20:57.791Z,9.43
2023-03-01T11:31:09.033Z,9.53
2023-03-01T11:41:18.576Z,9.47
2023-03-01T11:51:27.377Z,7.75
2023-03-01T12:01:47.233Z,6.63
2023-03-01T12:12:07.084Z,7.10
2023-03-01T12:22:26.384Z,6.72
2023-03-01T12:32:45.466Z,7.97
2023-03-01T12:43:00.959Z,6.97
2023-03-01T12:53:04.279Z,8.30
2023-03-01T13:03:20.419Z,7.93
2023-03-01T13:13:25.321Z,6.87
2023-03-01T13:23:33.311Z,6.40
2023-03-01T13:33:45.103Z,6.37
2023-03-01T13:43:52.637Z,6.70
2023-03-01T13:53:58.707Z,6.17
2023-03-01T14:04:04.963Z,6.40
2023-03-01T14:14:20.541Z,5.37
2023-03-01T14:24:25.558Z,5.07
2023-03-01T14:34:29.314Z,5.03
2023-03-01T14:44:36.204Z,3.83
2023-03-01T14:54:43.492Z,5.63
2023-03-01T15:04:50.460Z,4.33
2023-03-01T15:15:03.299Z,5.67
2023-03-01T15:25:17.538Z,5.73
2023-03-01T15:35:42.846Z,5.00
2023-03-01T15:45:58.988Z,5.67
2023-03-01T15:56:02.038Z,4.37
2023-03-01T16:06:07.413Z,3.40
2023-03-01T16:16:13.610Z,5.40
2023-03-01T16:26:20.335Z,5.80
2023-03-01T16:36:26.487Z,6.43
2023-03-01T16:46:31.208Z,6.47
2023-03-01T16:56:35.723Z,6.67
2023-03-01T17:06:40.215Z,6.00
2023-03-01T17:16:43.426Z,5.90
2023-03-01T17:26:47.885Z,5.57
2023-03-01T17:36:52.090Z,4.27
2023-03-01T17:46:56.472Z,4.53
2023-03-01T17:57:00.537Z,5.30
2023-03-01T18:07:05.031Z,6.90
2023-03-01T18:17:12.398Z,6.77
2023-03-01T18:27:16.991Z,4.70
2023-03-01T18:37:20.811Z,4.57
2023-03-01T18:47:25.520Z,4.00
2023-03-01T18:57:29.118Z,5.30
2023-03-01T19:07:34.659Z,4.17
2023-03-01T19:17:37.635Z,5.47
2023-03-01T19:27:42.620Z,7.37
2023-03-01T19:37:45.828Z,8.47
2023-03-01T19:47:52.520Z,9.50
2023-03-01T19:57:55.631Z,9.20
2023-03-01T20:08:00.820Z,9.13
2023-03-01T20:18:04.322Z,9.53
2023-03-01T20:28:08.455Z,9.70
2023-03-01T20:38:12.900Z,10.90
2023-03-01T20:48:17.552Z,10.83
2023-03-01T20:58:20.978Z,11.07
2023-03-01T21:08:25.717Z,11.13
2023-03-01T21:18:30.411Z,11.13
2023-03-01T21:28:35.596Z,11.50
2023-03-01T21:38:40.545Z,10.70
2023-03-01T21:48:46.179Z,11.30
2023-03-01T21:58:50.020Z,11.33
2023-03-01T22:08:57.754Z,9.40
2023-03-01T22:19:02.274Z,8.73
2023-03-01T22:29:10.286Z,10.40
2023-03-01T22:39:15.557Z,9.83
2023-03-01T22:49:20.519Z,9.80
2023-03-01T22:59:24.024Z,10.07
2023-03-01T23:09:31.082Z,9.60
2023-03-01T23:19:34.231Z,10.37
2023-03-01T23:29:38.677Z,9.03
2023-03-01T23:39:42.710Z,9.27
2023-03-01T23:49:47.671Z,9.10
2023-03-01T23:59:51.784Z,8.47
